LUX weather

Public forecast

Using degrees Celsius for public forecast. Weather courtesy of forecast.io.

Current aviation weather report (METAR) for Luxembourg-Findel International Airport

Retrieved 2020/08/09 16:20 UTC (36 minutes ago):

ELLX 091620Z 06015KT 9999 SCT075TCU 32/14 Q1016 NOSIG

Aviation forecast (TAF) for Luxembourg-Findel International Airport

Retrieved 2020/08/09 12:27 UTC (4 hours ago):

TAF ELLX 091100Z 0912/1018 16007KT CAVOK PROB30 TEMPO 0914/0920 VRB15G35KT -TSRA SCT080CB BECMG 0920/0922 06007KT